Accueil
METAR-TAF:

METAR-TAF

Aéroports :

Fairfield Municipal Airport

Fairfield, Illinois, États-Unis

latitude: 38-22-43N, longitude: 088-24-46W, altitude: 133 m

Observation

Le bulletin a été fait il y a 20 minutes, à 21:15 UTC
Vent calme
Température 28°C
Humidité 79%
Pression 1016 hPa
Visibilité: 16.1 km
Nuages épars à une hauteur de 1700 ft
Nuages épars à une hauteur de 6000 ft
orage à proximité

METAR: KFWC 122115Z AUTO 00000KT 10SM VCTS SCT017 SCT060 28/24 A3001 RMK AO1 LTG DSNT SE AND S T02790239

Heure: 16:35 (21:35 UTC)


TAF: absent

Observations et prévisions météorologiques de plus de 4000 aéroports (messages METAR et TAF).

Les stations disponibles sont représentées par des disques jaunes et rouges sur la carte.

Passer la souris dessus pour voir le nom de la station.

Cliquer dessus pour voir les observations et prévisions météorologiques.

Pour changer de carte: cliquez sur les boutons verts avec une croix noire pour zoomer, sur le bouton vert avec un tiret pour effectuer un zoom arrière, ou sur les flèches vertes pour les cartes adjacentes.


METAR-TAF: